Chelsea, Alabama
Current Conditions -  °F | °C
As of 2:04 PM on Sunday 23 Nov 2014 (Local Time) from KEET Reporting Station
Overcast Overcast  
Wind Chill: 65°   Ceiling: 7500
Heat Index: 65°   Visibility: 10mi
Dew Point: 63°   Wind: 3mph
Humidity: 93%   Direction: 160°SSE
Pressure: 29.57"   Gusts: NA
Location:  33.34°N, 86.63°W
Report Text: KEET 232004Z AUTO 16003KT 10SM FEW014 BKN075 OVC100 18/17 A2957 RMK AO2 RAE01 P0000 T01830172
Loading
Personal Weather Stations






























Interactive Weather Map New forecast layout! Learn more

10-Day Weather Forecast

Advertisements
Track Severe Weather on mobile